createdAt,value
2022-07-25T00:00:30.147Z,100.00
2022-07-25T00:04:33.524Z,100.00
2022-07-25T00:08:39.068Z,100.00
2022-07-25T00:12:43.245Z,100.00
2022-07-25T00:16:47.725Z,100.00
2022-07-25T00:20:51.281Z,100.00
2022-07-25T00:24:54.710Z,100.00
2022-07-25T00:28:57.762Z,100.00
2022-07-25T00:33:03.017Z,100.00
2022-07-25T00:37:06.464Z,100.00
2022-07-25T00:41:09.702Z,100.00
2022-07-25T00:45:13.033Z,100.00
2022-07-25T00:49:17.542Z,100.00
2022-07-25T00:53:20.769Z,100.00
2022-07-25T00:57:24.186Z,100.00
2022-07-25T01:01:27.532Z,100.00
2022-07-25T01:05:33.062Z,100.00
2022-07-25T01:09:36.584Z,100.00
2022-07-25T01:13:40.193Z,100.00
2022-07-25T01:17:43.301Z,100.00
2022-07-25T01:21:48.355Z,100.00
2022-07-25T01:25:51.412Z,100.00
2022-07-25T01:29:54.641Z,100.00
2022-07-25T01:33:57.810Z,100.00
2022-07-25T01:38:02.385Z,100.00
2022-07-25T01:42:06.175Z,100.00
2022-07-25T01:46:09.273Z,100.00
2022-07-25T01:50:12.500Z,100.00
2022-07-25T01:54:16.886Z,100.00
2022-07-25T01:58:20.237Z,100.00
2022-07-25T02:02:24.767Z,100.00
2022-07-25T02:12:22.854Z,100.00
2022-07-25T02:16:29.126Z,100.00
2022-07-25T02:20:32.772Z,100.00
2022-07-25T02:24:37.211Z,100.00
2022-07-25T02:28:42.176Z,100.00
2022-07-25T02:32:45.292Z,100.00
2022-07-25T02:36:48.662Z,100.00
2022-07-25T02:40:53.320Z,100.00
2022-07-25T02:44:58.255Z,100.00
2022-07-25T02:49:01.678Z,100.00
2022-07-25T02:53:05.635Z,100.00
2022-07-25T02:57:09.101Z,100.00
2022-07-25T03:01:14.290Z,100.00
2022-07-25T03:05:18.521Z,100.00
2022-07-25T03:09:21.622Z,100.00
2022-07-25T03:13:25.082Z,100.00
2022-07-25T03:17:30.701Z,100.00
2022-07-25T03:21:33.797Z,100.00
2022-07-25T03:25:38.004Z,100.00
2022-07-25T03:29:41.199Z,100.00
2022-07-25T03:33:46.799Z,100.00
2022-07-25T03:37:49.900Z,100.00
2022-07-25T03:41:55.645Z,100.00
2022-07-25T03:45:58.847Z,100.00
2022-07-25T03:50:04.185Z,100.00
2022-07-25T03:54:08.991Z,100.00
2022-07-25T03:58:12.359Z,100.00
2022-07-25T04:02:15.680Z,100.00
2022-07-25T04:06:20.580Z,100.00
2022-07-25T04:10:23.957Z,100.00
2022-07-25T04:14:27.073Z,100.00
2022-07-25T04:18:30.193Z,100.00
2022-07-25T04:22:40.975Z,100.00
2022-07-25T04:26:45.281Z,100.00
2022-07-25T04:30:48.667Z,100.00
2022-07-25T04:34:52.405Z,100.00
2022-07-25T04:38:56.815Z,100.00
2022-07-25T04:43:00.083Z,100.00
2022-07-25T04:47:03.214Z,100.00
2022-07-25T04:51:07.745Z,100.00
2022-07-25T04:55:13.074Z,100.00
2022-07-25T04:59:16.131Z,100.00
2022-07-25T05:03:19.248Z,100.00
2022-07-25T05:07:22.331Z,100.00
2022-07-25T05:11:26.789Z,100.00
2022-07-25T05:15:30.077Z,100.00
2022-07-25T05:19:33.294Z,100.00
2022-07-25T05:23:36.344Z,100.00
2022-07-25T05:27:42.101Z,100.00
2022-07-25T05:31:45.209Z,100.00
2022-07-25T05:35:48.320Z,100.00
2022-07-25T05:39:51.367Z,100.00
2022-07-25T05:43:55.768Z,100.00
2022-07-25T05:47:58.895Z,100.00
2022-07-25T05:52:02.269Z,100.00
2022-07-25T05:56:06.178Z,100.00
2022-07-25T06:00:11.952Z,100.00
2022-07-25T06:04:14.993Z,100.00
2022-07-25T06:08:18.099Z,100.00
2022-07-25T06:12:21.508Z,100.00
2022-07-25T06:16:28.992Z,100.00
2022-07-25T06:20:32.032Z,100.00
2022-07-25T06:24:35.119Z,100.00
2022-07-25T06:28:38.270Z,100.00
2022-07-25T06:32:42.598Z,100.00
2022-07-25T06:36:45.682Z,100.00
2022-07-25T06:40:48.755Z,100.00
2022-07-25T06:44:51.780Z,100.00
2022-07-25T06:48:56.268Z,100.00
2022-07-25T06:52:59.332Z,100.00
2022-07-25T06:57:02.375Z,100.00
2022-07-25T07:01:05.584Z,100.00
2022-07-25T07:05:10.690Z,100.00
2022-07-25T07:09:13.797Z,100.00
2022-07-25T07:13:23.699Z,100.00
2022-07-25T07:17:27.339Z,100.00
2022-07-25T07:21:31.704Z,100.00
2022-07-25T07:25:35.274Z,100.00
2022-07-25T07:29:38.444Z,100.00
2022-07-25T07:33:41.707Z,100.00
2022-07-25T07:37:46.690Z,100.00
2022-07-25T07:41:49.887Z,100.00
2022-07-25T07:45:52.944Z,100.00
2022-07-25T07:49:56.082Z,100.00
2022-07-25T07:54:17.149Z,100.00
2022-07-25T07:58:20.683Z,100.00
2022-07-25T08:02:26.958Z,100.00
2022-07-25T08:06:30.382Z,100.00
2022-07-25T08:10:36.922Z,100.00
2022-07-25T08:14:40.017Z,100.00
2022-07-25T08:18:43.165Z,100.00
2022-07-25T08:22:49.247Z,100.00
2022-07-25T08:26:55.355Z,100.00
2022-07-25T08:30:59.427Z,100.00
2022-07-25T08:35:04.374Z,100.00
2022-07-25T08:39:09.143Z,100.00
2022-07-25T08:43:15.154Z,100.00
2022-07-25T08:47:19.647Z,100.00
2022-07-25T08:51:23.051Z,100.00
2022-07-25T08:55:26.266Z,100.00
2022-07-25T08:59:32.059Z,100.00
2022-07-25T09:03:36.527Z,100.00
2022-07-25T09:07:40.904Z,100.00
2022-07-25T09:11:44.489Z,100.00
2022-07-25T09:15:50.597Z,100.00
2022-07-25T09:19:55.188Z,100.00
2022-07-25T09:24:09.884Z,100.00
2022-07-25T09:28:15.288Z,100.00
2022-07-25T09:32:22.177Z,100.00
2022-07-25T09:36:25.487Z,100.00
2022-07-25T09:40:28.728Z,100.00
2022-07-25T09:44:32.401Z,100.00
2022-07-25T09:48:37.526Z,100.00
2022-07-25T09:52:40.852Z,100.00
2022-07-25T09:56:43.916Z,100.00
2022-07-25T10:00:47.461Z,100.00
2022-07-25T10:05:05.483Z,98.61
2022-07-25T10:09:12.967Z,97.65
2022-07-25T10:13:18.389Z,99.07
2022-07-25T10:17:22.746Z,91.17
2022-07-25T10:21:29.412Z,89.17
2022-07-25T10:25:32.515Z,89.63
2022-07-25T10:29:36.248Z,89.65
2022-07-25T10:33:42.743Z,90.27
2022-07-25T10:37:49.297Z,86.43
2022-07-25T10:41:54.357Z,86.85
2022-07-25T10:46:00.202Z,86.90
2022-07-25T10:50:22.014Z,91.54
2022-07-25T10:54:35.131Z,91.36
2022-07-25T10:58:50.239Z,90.64
2022-07-25T11:02:57.239Z,92.72
2022-07-25T11:07:09.513Z,87.53
2022-07-25T11:11:14.323Z,89.40
2022-07-25T11:15:17.570Z,88.59
2022-07-25T11:19:22.670Z,91.02
2022-07-25T11:23:25.753Z,94.36
2022-07-25T11:27:32.050Z,93.38
2022-07-25T11:31:35.845Z,95.72
2022-07-25T11:35:39.155Z,100.00
2022-07-25T11:39:44.059Z,100.00
2022-07-25T11:43:51.524Z,100.00
2022-07-25T11:48:04.568Z,94.55
2022-07-25T11:52:07.829Z,99.82
2022-07-25T11:56:41.272Z,100.00
2022-07-25T12:00:45.433Z,100.00
2022-07-25T12:04:55.668Z,100.00
2022-07-25T12:08:58.722Z,100.00
2022-07-25T12:13:04.247Z,100.00
2022-07-25T12:17:09.344Z,100.00
2022-07-25T12:21:13.901Z,100.00
2022-07-25T12:25:17.819Z,100.00
2022-07-25T12:29:21.159Z,96.41
2022-07-25T12:33:25.644Z,98.96
2022-07-25T12:37:28.929Z,100.00
2022-07-25T12:41:32.478Z,92.28
2022-07-25T12:45:35.624Z,96.92
2022-07-25T12:49:40.267Z,89.27
2022-07-25T12:53:43.296Z,96.91
2022-07-25T12:57:46.977Z,95.14
2022-07-25T13:01:50.209Z,95.04
2022-07-25T13:05:54.816Z,96.93
2022-07-25T13:09:57.863Z,94.67
2022-07-25T13:14:01.081Z,97.01
2022-07-25T13:18:04.979Z,96.80
2022-07-25T13:22:09.401Z,100.00
2022-07-25T13:26:12.543Z,100.00
2022-07-25T13:30:15.879Z,100.00
2022-07-25T13:34:19.173Z,100.00
2022-07-25T13:38:23.709Z,100.00
2022-07-25T13:42:26.911Z,100.00
2022-07-25T13:46:29.998Z,100.00
2022-07-25T13:50:33.187Z,100.00
2022-07-25T13:54:37.647Z,100.00
2022-07-25T13:58:41.689Z,100.00
2022-07-25T14:02:44.962Z,100.00
2022-07-25T14:06:51.988Z,100.00
2022-07-25T14:10:56.588Z,100.00
2022-07-25T14:14:59.940Z,100.00
2022-07-25T14:19:03.529Z,100.00
2022-07-25T14:23:06.737Z,100.00
2022-07-25T14:27:11.953Z,100.00
2022-07-25T14:31:15.214Z,100.00
2022-07-25T14:35:18.490Z,100.00
2022-07-25T14:39:21.619Z,100.00
2022-07-25T14:43:26.398Z,100.00
2022-07-25T14:47:29.573Z,100.00
2022-07-25T14:51:33.062Z,100.00
2022-07-25T14:55:37.506Z,100.00
2022-07-25T14:59:42.147Z,100.00
2022-07-25T15:03:45.782Z,100.00
2022-07-25T15:07:48.833Z,100.00
2022-07-25T15:13:20.551Z,100.00
2022-07-25T15:17:20.386Z,100.00
2022-07-25T15:21:23.408Z,96.00
2022-07-25T15:29:49.511Z,97.94
2022-07-25T15:33:55.332Z,100.00
2022-07-25T15:37:58.963Z,98.42
2022-07-25T15:42:02.190Z,94.08
2022-07-25T15:46:05.387Z,89.94
2022-07-25T15:50:10.564Z,91.66
2022-07-25T15:54:13.629Z,89.48
2022-07-25T15:58:16.928Z,97.23
2022-07-25T16:02:20.109Z,100.00
2022-07-25T16:06:24.922Z,100.00
2022-07-25T16:10:29.309Z,100.00
2022-07-25T16:14:32.556Z,100.00
2022-07-25T16:18:35.728Z,100.00
2022-07-25T16:22:40.515Z,100.00
2022-07-25T16:26:43.792Z,100.00
2022-07-25T16:30:46.997Z,100.00
2022-07-25T16:34:50.216Z,100.00
2022-07-25T16:38:55.053Z,100.00
2022-07-25T16:42:59.355Z,100.00
2022-07-25T16:47:02.529Z,100.00
2022-07-25T16:51:06.168Z,97.10
2022-07-25T16:55:11.141Z,97.75
2022-07-25T16:59:14.581Z,97.04
2022-07-25T17:03:17.890Z,94.20
2022-07-25T17:07:21.161Z,91.03
2022-07-25T17:11:25.675Z,90.89
2022-07-25T17:15:28.829Z,95.40
2022-07-25T17:19:33.889Z,97.19
2022-07-25T17:23:36.967Z,96.29
2022-07-25T17:27:41.424Z,98.55
2022-07-25T17:31:44.724Z,100.00
2022-07-25T17:35:47.932Z,100.00
2022-07-25T17:39:51.374Z,100.00
2022-07-25T17:43:55.829Z,98.86
2022-07-25T17:47:59.047Z,95.82
2022-07-25T17:52:02.217Z,94.23
2022-07-25T17:56:07.523Z,95.24
2022-07-25T18:00:14.303Z,97.09
2022-07-25T18:04:17.527Z,92.95
2022-07-25T18:08:21.830Z,90.45
2022-07-25T18:12:29.277Z,89.90
2022-07-25T18:16:34.260Z,90.69
2022-07-25T18:20:39.952Z,92.70
2022-07-25T18:24:43.036Z,94.09
2022-07-25T18:28:46.271Z,94.11
2022-07-25T18:32:50.667Z,93.07
2022-07-25T18:36:53.826Z,97.16
2022-07-25T18:41:12.585Z,98.29
2022-07-25T18:45:20.318Z,100.00
2022-07-25T18:49:27.201Z,100.00
2022-07-25T18:53:30.735Z,100.00
2022-07-25T18:57:35.235Z,100.00
2022-07-25T19:01:40.940Z,100.00
2022-07-25T19:05:45.569Z,100.00
2022-07-25T19:09:49.980Z,100.00
2022-07-25T19:13:53.313Z,100.00
2022-07-25T19:17:57.378Z,100.00
2022-07-25T19:22:02.733Z,100.00
2022-07-25T19:26:06.347Z,100.00
2022-07-25T19:30:15.267Z,100.00
2022-07-25T19:34:20.389Z,100.00
2022-07-25T19:38:25.242Z,100.00
2022-07-25T19:42:28.358Z,100.00
2022-07-25T19:46:34.229Z,100.00
2022-07-25T19:50:37.454Z,100.00
2022-07-25T19:54:42.149Z,100.00
2022-07-25T19:58:45.482Z,100.00
2022-07-25T20:02:48.683Z,100.00
2022-07-25T20:06:53.842Z,100.00
2022-07-25T20:10:58.390Z,100.00
2022-07-25T20:15:01.701Z,100.00
2022-07-25T20:19:05.837Z,100.00
2022-07-25T20:23:09.189Z,100.00
2022-07-25T20:27:13.678Z,100.00
2022-07-25T20:31:17.691Z,100.00
2022-07-25T20:35:21.166Z,100.00
2022-07-25T20:39:26.419Z,100.00
2022-07-25T20:43:33.575Z,100.00
2022-07-25T20:47:36.678Z,100.00
2022-07-25T20:51:40.818Z,100.00
2022-07-25T20:55:44.002Z,100.00
2022-07-25T20:59:48.505Z,100.00
2022-07-25T21:03:51.675Z,100.00
2022-07-25T21:07:55.191Z,100.00
2022-07-25T21:11:58.592Z,100.00
2022-07-25T21:16:03.150Z,100.00
2022-07-25T21:20:07.495Z,100.00
2022-07-25T21:24:11.984Z,100.00
2022-07-25T21:28:15.357Z,100.00
2022-07-25T21:32:21.457Z,100.00
2022-07-25T21:36:24.615Z,100.00
2022-07-25T21:40:28.658Z,100.00
2022-07-25T21:44:32.209Z,100.00
2022-07-25T21:48:54.420Z,100.00
2022-07-25T21:52:58.008Z,100.00
2022-07-25T21:57:01.394Z,100.00
2022-07-25T22:01:04.949Z,100.00
2022-07-25T22:05:11.104Z,100.00
2022-07-25T22:09:14.222Z,100.00
2022-07-25T22:13:17.389Z,100.00
2022-07-25T22:17:20.470Z,100.00
2022-07-25T22:21:24.841Z,100.00
2022-07-25T22:25:29.502Z,100.00
2022-07-25T22:29:32.644Z,100.00
2022-07-25T22:33:37.948Z,100.00
2022-07-25T22:37:42.430Z,100.00
2022-07-25T22:41:45.824Z,100.00
2022-07-25T22:45:48.956Z,100.00
2022-07-25T22:49:51.973Z,100.00
2022-07-25T22:53:56.694Z,100.00
2022-07-25T22:57:59.782Z,100.00
2022-07-25T23:02:02.999Z,100.00
2022-07-25T23:06:06.247Z,100.00
2022-07-25T23:10:11.480Z,100.00
2022-07-25T23:14:14.627Z,100.00
2022-07-25T23:18:17.691Z,100.00
2022-07-25T23:22:23.330Z,100.00
2022-07-25T23:26:27.714Z,100.00
2022-07-25T23:30:30.717Z,100.00
2022-07-25T23:34:33.893Z,100.00
2022-07-25T23:38:37.146Z,100.00
2022-07-25T23:42:41.660Z,100.00
2022-07-25T23:46:44.967Z,100.00
2022-07-25T23:50:48.056Z,100.00
2022-07-25T23:54:51.259Z,100.00
2022-07-25T23:58:55.706Z,100.00
